sensor_id;sensor_type;location;lat;lon;timestamp;temperature;humidity
19888;DHT22;10106;51.332;12.336;2023-05-03T00:02:00;7.00;99.90
19888;DHT22;10106;51.332;12.336;2023-05-03T00:04:26;7.00;99.90
19888;DHT22;10106;51.332;12.336;2023-05-03T00:06:52;6.90;99.90
19888;DHT22;10106;51.332;12.336;2023-05-03T00:09:18;6.90;99.90
19888;DHT22;10106;51.332;12.336;2023-05-03T00:11:44;6.80;99.90
19888;DHT22;10106;51.332;12.336;2023-05-03T00:14:09;6.80;99.90
19888;DHT22;10106;51.332;12.336;2023-05-03T00:16:35;6.70;99.90
19888;DHT22;10106;51.332;12.336;2023-05-03T00:19:01;6.70;99.90
19888;DHT22;10106;51.332;12.336;2023-05-03T00:21:26;6.70;99.90
19888;DHT22;10106;51.332;12.336;2023-05-03T00:23:52;6.70;99.90
19888;DHT22;10106;51.332;12.336;2023-05-03T00:26:18;6.70;99.90
19888;DHT22;10106;51.332;12.336;2023-05-03T00:28:43;6.60;99.90
19888;DHT22;10106;51.332;12.336;2023-05-03T00:31:09;6.70;99.90
19888;DHT22;10106;51.332;12.336;2023-05-03T00:33:38;6.60;99.90
19888;DHT22;10106;51.332;12.336;2023-05-03T00:38:33;6.50;99.90
19888;DHT22;10106;51.332;12.336;2023-05-03T00:40:58;6.50;99.90
19888;DHT22;10106;51.332;12.336;2023-05-03T00:43:24;6.40;99.90
19888;DHT22;10106;51.332;12.336;2023-05-03T00:45:49;6.40;99.90
19888;DHT22;10106;51.332;12.336;2023-05-03T00:48:15;6.30;99.90
19888;DHT22;10106;51.332;12.336;2023-05-03T00:50:43;6.20;99.90
19888;DHT22;10106;51.332;12.336;2023-05-03T00:53:08;6.10;99.90
19888;DHT22;10106;51.332;12.336;2023-05-03T00:55:35;6.10;99.90
19888;DHT22;10106;51.332;12.336;2023-05-03T00:58:00;6.00;99.90
19888;DHT22;10106;51.332;12.336;2023-05-03T01:00:26;5.90;99.90
19888;DHT22;10106;51.332;12.336;2023-05-03T01:02:52;5.80;99.90
19888;DHT22;10106;51.332;12.336;2023-05-03T01:05:18;5.80;99.90
19888;DHT22;10106;51.332;12.336;2023-05-03T01:07:55;5.70;99.90
19888;DHT22;10106;51.332;12.336;2023-05-03T01:10:25;5.70;99.90
19888;DHT22;10106;51.332;12.336;2023-05-03T01:13:04;5.60;99.90
19888;DHT22;10106;51.332;12.336;2023-05-03T01:20:25;5.40;99.90
19888;DHT22;10106;51.332;12.336;2023-05-03T01:22:59;5.30;99.90
19888;DHT22;10106;51.332;12.336;2023-05-03T01:25:25;5.30;99.90
19888;DHT22;10106;51.332;12.336;2023-05-03T01:27:53;5.30;99.90
19888;DHT22;10106;51.332;12.336;2023-05-03T01:30:19;5.30;99.90
19888;DHT22;10106;51.332;12.336;2023-05-03T01:37:55;5.20;99.90
19888;DHT22;10106;51.332;12.336;2023-05-03T01:40:21;5.20;99.90
19888;DHT22;10106;51.332;12.336;2023-05-03T01:42:47;5.20;99.90
19888;DHT22;10106;51.332;12.336;2023-05-03T01:45:14;5.20;99.90
19888;DHT22;10106;51.332;12.336;2023-05-03T01:47:40;5.20;99.90
19888;DHT22;10106;51.332;12.336;2023-05-03T01:50:05;5.30;99.90
19888;DHT22;10106;51.332;12.336;2023-05-03T01:52:32;5.30;99.90
19888;DHT22;10106;51.332;12.336;2023-05-03T01:54:58;5.30;99.90
19888;DHT22;10106;51.332;12.336;2023-05-03T01:57:24;5.40;99.90
19888;DHT22;10106;51.332;12.336;2023-05-03T01:59:50;5.40;99.90
19888;DHT22;10106;51.332;12.336;2023-05-03T02:02:15;5.50;99.90
19888;DHT22;10106;51.332;12.336;2023-05-03T02:04:41;5.50;99.90
19888;DHT22;10106;51.332;12.336;2023-05-03T02:07:07;5.50;99.90
19888;DHT22;10106;51.332;12.336;2023-05-03T02:09:33;5.50;99.90
19888;DHT22;10106;51.332;12.336;2023-05-03T02:11:59;5.60;99.90
19888;DHT22;10106;51.332;12.336;2023-05-03T02:14:24;5.60;99.90
19888;DHT22;10106;51.332;12.336;2023-05-03T02:16:50;5.60;99.90
19888;DHT22;10106;51.332;12.336;2023-05-03T02:19:16;5.60;99.90
19888;DHT22;10106;51.332;12.336;2023-05-03T02:21:41;5.60;99.90
19888;DHT22;10106;51.332;12.336;2023-05-03T02:24:07;5.60;99.90
19888;DHT22;10106;51.332;12.336;2023-05-03T02:26:32;5.60;99.90
19888;DHT22;10106;51.332;12.336;2023-05-03T02:28:58;5.60;99.90
19888;DHT22;10106;51.332;12.336;2023-05-03T02:31:23;5.60;99.90
19888;DHT22;10106;51.332;12.336;2023-05-03T02:33:49;5.50;99.90
19888;DHT22;10106;51.332;12.336;2023-05-03T02:36:15;5.50;99.90
19888;DHT22;10106;51.332;12.336;2023-05-03T02:38:40;5.50;99.90
19888;DHT22;10106;51.332;12.336;2023-05-03T02:41:06;5.50;99.90
19888;DHT22;10106;51.332;12.336;2023-05-03T02:43:31;5.50;99.90
19888;DHT22;10106;51.332;12.336;2023-05-03T02:45:57;5.50;99.90
19888;DHT22;10106;51.332;12.336;2023-05-03T02:48:22;5.50;99.90
19888;DHT22;10106;51.332;12.336;2023-05-03T02:50:48;5.50;99.90
19888;DHT22;10106;51.332;12.336;2023-05-03T02:53:13;5.50;99.90
19888;DHT22;10106;51.332;12.336;2023-05-03T02:55:39;5.50;99.90
19888;DHT22;10106;51.332;12.336;2023-05-03T02:58:05;5.50;99.90
19888;DHT22;10106;51.332;12.336;2023-05-03T03:00:30;5.50;99.90
19888;DHT22;10106;51.332;12.336;2023-05-03T03:02:56;5.50;99.90
19888;DHT22;10106;51.332;12.336;2023-05-03T03:05:21;5.50;99.90
19888;DHT22;10106;51.332;12.336;2023-05-03T03:07:47;5.50;99.90
19888;DHT22;10106;51.332;12.336;2023-05-03T03:10:13;5.50;99.90
19888;DHT22;10106;51.332;12.336;2023-05-03T03:12:38;5.50;99.90
19888;DHT22;10106;51.332;12.336;2023-05-03T03:15:04;5.50;99.90
19888;DHT22;10106;51.332;12.336;2023-05-03T03:17:30;5.50;99.90
19888;DHT22;10106;51.332;12.336;2023-05-03T03:19:56;5.40;99.90
19888;DHT22;10106;51.332;12.336;2023-05-03T03:22:22;5.40;99.90
19888;DHT22;10106;51.332;12.336;2023-05-03T03:24:50;5.50;99.90
19888;DHT22;10106;51.332;12.336;2023-05-03T03:27:15;5.40;99.90
19888;DHT22;10106;51.332;12.336;2023-05-03T03:29:41;5.30;99.90
19888;DHT22;10106;51.332;12.336;2023-05-03T03:32:06;5.30;99.90
19888;DHT22;10106;51.332;12.336;2023-05-03T03:34:32;5.30;99.90
19888;DHT22;10106;51.332;12.336;2023-05-03T03:36:57;5.30;99.90
19888;DHT22;10106;51.332;12.336;2023-05-03T03:39:23;5.30;99.90
19888;DHT22;10106;51.332;12.336;2023-05-03T03:41:48;5.30;99.90
19888;DHT22;10106;51.332;12.336;2023-05-03T03:44:14;5.30;99.90
19888;DHT22;10106;51.332;12.336;2023-05-03T03:46:39;5.30;99.90
19888;DHT22;10106;51.332;12.336;2023-05-03T03:49:05;5.40;99.90
19888;DHT22;10106;51.332;12.336;2023-05-03T03:51:30;5.40;99.90
19888;DHT22;10106;51.332;12.336;2023-05-03T03:53:56;5.40;99.90
19888;DHT22;10106;51.332;12.336;2023-05-03T03:56:21;5.40;99.90
19888;DHT22;10106;51.332;12.336;2023-05-03T03:58:48;5.40;99.90
19888;DHT22;10106;51.332;12.336;2023-05-03T04:01:13;5.40;99.90
19888;DHT22;10106;51.332;12.336;2023-05-03T04:03:39;5.40;99.90
19888;DHT22;10106;51.332;12.336;2023-05-03T04:06:04;5.30;99.90
19888;DHT22;10106;51.332;12.336;2023-05-03T04:08:30;5.40;99.90
19888;DHT22;10106;51.332;12.336;2023-05-03T04:10:55;5.40;99.90
19888;DHT22;10106;51.332;12.336;2023-05-03T04:13:21;5.50;99.90
19888;DHT22;10106;51.332;12.336;2023-05-03T04:15:46;5.50;99.90
19888;DHT22;10106;51.332;12.336;2023-05-03T04:18:12;5.50;99.90
19888;DHT22;10106;51.332;12.336;2023-05-03T04:20:37;5.60;99.90
19888;DHT22;10106;51.332;12.336;2023-05-03T04:23:03;5.70;99.90
19888;DHT22;10106;51.332;12.336;2023-05-03T04:25:28;5.80;99.90
19888;DHT22;10106;51.332;12.336;2023-05-03T04:27:56;5.80;99.90
19888;DHT22;10106;51.332;12.336;2023-05-03T04:30:22;5.90;99.90
19888;DHT22;10106;51.332;12.336;2023-05-03T04:32:49;6.00;99.90
19888;DHT22;10106;51.332;12.336;2023-05-03T04:35:15;6.10;99.90
19888;DHT22;10106;51.332;12.336;2023-05-03T04:37:41;6.20;99.90
19888;DHT22;10106;51.332;12.336;2023-05-03T04:40:07;6.30;99.90
19888;DHT22;10106;51.332;12.336;2023-05-03T04:42:37;6.50;99.90
19888;DHT22;10106;51.332;12.336;2023-05-03T04:45:02;6.60;99.90
19888;DHT22;10106;51.332;12.336;2023-05-03T04:47:31;6.80;99.90
19888;DHT22;10106;51.332;12.336;2023-05-03T04:49:56;7.20;99.90
19888;DHT22;10106;51.332;12.336;2023-05-03T04:52:22;7.70;99.90
19888;DHT22;10106;51.332;12.336;2023-05-03T04:54:48;8.30;99.90
19888;DHT22;10106;51.332;12.336;2023-05-03T04:57:13;9.60;99.90
19888;DHT22;10106;51.332;12.336;2023-05-03T04:59:39;11.10;99.90
19888;DHT22;10106;51.332;12.336;2023-05-03T05:07:16;12.30;99.90
19888;DHT22;10106;51.332;12.336;2023-05-03T05:09:42;13.10;99.90
19888;DHT22;10106;51.332;12.336;2023-05-03T05:12:08;14.10;99.90
19888;DHT22;10106;51.332;12.336;2023-05-03T05:14:33;14.80;99.90
19888;DHT22;10106;51.332;12.336;2023-05-03T05:16:59;15.30;99.90
19888;DHT22;10106;51.332;12.336;2023-05-03T05:19:25;16.10;99.50
19888;DHT22;10106;51.332;12.336;2023-05-03T05:21:51;17.10;97.20
19888;DHT22;10106;51.332;12.336;2023-05-03T05:24:17;17.20;95.80
19888;DHT22;10106;51.332;12.336;2023-05-03T05:26:43;17.40;94.00
19888;DHT22;10106;51.332;12.336;2023-05-03T05:29:09;17.20;92.90
19888;DHT22;10106;51.332;12.336;2023-05-03T05:31:35;16.50;91.90
19888;DHT22;10106;51.332;12.336;2023-05-03T05:34:01;16.10;93.00
19888;DHT22;10106;51.332;12.336;2023-05-03T05:36:29;15.90;93.50
19888;DHT22;10106;51.332;12.336;2023-05-03T05:38:55;15.80;93.40
19888;DHT22;10106;51.332;12.336;2023-05-03T05:41:20;16.40;93.50
19888;DHT22;10106;51.332;12.336;2023-05-03T05:43:46;16.90;91.90
19888;DHT22;10106;51.332;12.336;2023-05-03T05:46:12;17.20;90.40
19888;DHT22;10106;51.332;12.336;2023-05-03T05:48:40;17.60;90.10
19888;DHT22;10106;51.332;12.336;2023-05-03T05:51:06;18.00;88.10
19888;DHT22;10106;51.332;12.336;2023-05-03T05:53:32;18.60;85.50
19888;DHT22;10106;51.332;12.336;2023-05-03T05:55:57;19.50;83.20
19888;DHT22;10106;51.332;12.336;2023-05-03T05:58:23;19.90;78.80
19888;DHT22;10106;51.332;12.336;2023-05-03T06:00:49;19.80;79.30
19888;DHT22;10106;51.332;12.336;2023-05-03T06:03:15;19.80;76.30
19888;DHT22;10106;51.332;12.336;2023-05-03T06:05:41;20.10;74.80
19888;DHT22;10106;51.332;12.336;2023-05-03T06:08:07;19.90;73.10
19888;DHT22;10106;51.332;12.336;2023-05-03T06:10:33;19.30;74.10
19888;DHT22;10106;51.332;12.336;2023-05-03T06:12:59;19.10;73.60
19888;DHT22;10106;51.332;12.336;2023-05-03T06:15:25;19.70;74.30
19888;DHT22;10106;51.332;12.336;2023-05-03T06:17:51;20.60;69.60
19888;DHT22;10106;51.332;12.336;2023-05-03T06:20:19;21.20;67.20
19888;DHT22;10106;51.332;12.336;2023-05-03T06:22:45;22.00;65.00
19888;DHT22;10106;51.332;12.336;2023-05-03T06:25:11;22.70;62.80
19888;DHT22;10106;51.332;12.336;2023-05-03T06:27:38;23.50;60.90
19888;DHT22;10106;51.332;12.336;2023-05-03T06:30:05;23.60;57.90
19888;DHT22;10106;51.332;12.336;2023-05-03T06:32:30;23.60;55.90
19888;DHT22;10106;51.332;12.336;2023-05-03T06:34:56;24.30;54.20
19888;DHT22;10106;51.332;12.336;2023-05-03T06:37:24;24.80;56.80
19888;DHT22;10106;51.332;12.336;2023-05-03T06:39:50;24.90;52.50
19888;DHT22;10106;51.332;12.336;2023-05-03T06:42:16;24.50;51.40
19888;DHT22;10106;51.332;12.336;2023-05-03T06:44:42;24.20;51.70
19888;DHT22;10106;51.332;12.336;2023-05-03T06:47:07;24.50;50.10
19888;DHT22;10106;51.332;12.336;2023-05-03T06:49:33;25.00;49.80
19888;DHT22;10106;51.332;12.336;2023-05-03T06:51:58;25.40;47.90
19888;DHT22;10106;51.332;12.336;2023-05-03T06:54:24;25.40;46.80
19888;DHT22;10106;51.332;12.336;2023-05-03T06:56:49;25.50;47.80
19888;DHT22;10106;51.332;12.336;2023-05-03T06:59:16;25.10;47.40
19888;DHT22;10106;51.332;12.336;2023-05-03T07:01:42;24.80;46.80
19888;DHT22;10106;51.332;12.336;2023-05-03T07:04:07;24.70;46.70
19888;DHT22;10106;51.332;12.336;2023-05-03T07:06:33;25.20;47.00
19888;DHT22;10106;51.332;12.336;2023-05-03T07:08:58;25.50;48.10
19888;DHT22;10106;51.332;12.336;2023-05-03T07:11:24;26.20;45.40
19888;DHT22;10106;51.332;12.336;2023-05-03T07:13:50;26.10;44.30
19888;DHT22;10106;51.332;12.336;2023-05-03T07:16:19;26.30;44.60
19888;DHT22;10106;51.332;12.336;2023-05-03T07:18:46;26.20;43.70
19888;DHT22;10106;51.332;12.336;2023-05-03T07:21:12;26.30;42.40
19888;DHT22;10106;51.332;12.336;2023-05-03T07:23:38;27.10;41.30
19888;DHT22;10106;51.332;12.336;2023-05-03T07:26:03;26.70;39.10
19888;DHT22;10106;51.332;12.336;2023-05-03T07:28:29;27.00;38.80
19888;DHT22;10106;51.332;12.336;2023-05-03T07:30:58;26.60;40.10
19888;DHT22;10106;51.332;12.336;2023-05-03T07:33:24;26.30;39.10
19888;DHT22;10106;51.332;12.336;2023-05-03T07:35:49;26.90;38.80
19888;DHT22;10106;51.332;12.336;2023-05-03T07:38:15;27.20;38.70
19888;DHT22;10106;51.332;12.336;2023-05-03T07:40:41;27.60;39.70
19888;DHT22;10106;51.332;12.336;2023-05-03T07:43:07;27.00;40.00
19888;DHT22;10106;51.332;12.336;2023-05-03T07:45:34;27.30;39.80
19888;DHT22;10106;51.332;12.336;2023-05-03T07:48:00;27.40;40.50
19888;DHT22;10106;51.332;12.336;2023-05-03T07:50:26;26.60;39.60
19888;DHT22;10106;51.332;12.336;2023-05-03T07:52:51;26.70;40.20
19888;DHT22;10106;51.332;12.336;2023-05-03T07:55:18;27.30;40.80
19888;DHT22;10106;51.332;12.336;2023-05-03T07:57:45;27.10;41.40
19888;DHT22;10106;51.332;12.336;2023-05-03T08:00:11;26.90;40.30
19888;DHT22;10106;51.332;12.336;2023-05-03T08:02:38;26.80;43.90
19888;DHT22;10106;51.332;12.336;2023-05-03T08:05:04;26.10;44.10
19888;DHT22;10106;51.332;12.336;2023-05-03T08:07:31;26.70;44.90
19888;DHT22;10106;51.332;12.336;2023-05-03T08:09:57;27.00;44.10
19888;DHT22;10106;51.332;12.336;2023-05-03T08:12:26;28.10;44.50
19888;DHT22;10106;51.332;12.336;2023-05-03T08:14:53;28.40;44.50
19888;DHT22;10106;51.332;12.336;2023-05-03T08:17:19;25.80;37.70
19888;DHT22;10106;51.332;12.336;2023-05-03T08:19:46;24.60;40.10
19888;DHT22;10106;51.332;12.336;2023-05-03T08:22:11;23.60;40.40
19888;DHT22;10106;51.332;12.336;2023-05-03T08:24:40;22.10;42.20
19888;DHT22;10106;51.332;12.336;2023-05-03T08:27:07;23.50;43.50
19888;DHT22;10106;51.332;12.336;2023-05-03T08:29:34;24.70;41.50
19888;DHT22;10106;51.332;12.336;2023-05-03T08:32:02;25.30;40.60
19888;DHT22;10106;51.332;12.336;2023-05-03T08:34:29;26.00;40.90
19888;DHT22;10106;51.332;12.336;2023-05-03T08:36:55;26.40;39.50
19888;DHT22;10106;51.332;12.336;2023-05-03T08:39:22;27.00;38.70
19888;DHT22;10106;51.332;12.336;2023-05-03T08:41:52;27.20;37.50
19888;DHT22;10106;51.332;12.336;2023-05-03T08:44:23;26.60;36.70
19888;DHT22;10106;51.332;12.336;2023-05-03T08:46:52;25.40;44.10
19888;DHT22;10106;51.332;12.336;2023-05-03T08:49:18;23.10;44.90
19888;DHT22;10106;51.332;12.336;2023-05-03T08:51:45;22.40;45.60
19888;DHT22;10106;51.332;12.336;2023-05-03T08:54:13;22.40;45.30
19888;DHT22;10106;51.332;12.336;2023-05-03T08:56:43;21.40;45.90
19888;DHT22;10106;51.332;12.336;2023-05-03T08:59:12;21.10;47.70
19888;DHT22;10106;51.332;12.336;2023-05-03T09:01:38;21.20;46.90
19888;DHT22;10106;51.332;12.336;2023-05-03T09:04:04;19.70;47.90
19888;DHT22;10106;51.332;12.336;2023-05-03T09:06:30;20.10;45.40
19888;DHT22;10106;51.332;12.336;2023-05-03T09:08:57;22.40;44.10
19888;DHT22;10106;51.332;12.336;2023-05-03T09:11:24;23.60;41.90
19888;DHT22;10106;51.332;12.336;2023-05-03T09:13:50;25.70;40.40
19888;DHT22;10106;51.332;12.336;2023-05-03T09:16:26;27.30;38.30
19888;DHT22;10106;51.332;12.336;2023-05-03T09:18:59;27.50;37.70
19888;DHT22;10106;51.332;12.336;2023-05-03T09:21:26;24.90;38.30
19888;DHT22;10106;51.332;12.336;2023-05-03T09:23:52;22.60;40.00
19888;DHT22;10106;51.332;12.336;2023-05-03T09:26:30;22.30;41.90
19888;DHT22;10106;51.332;12.336;2023-05-03T09:28:56;20.80;42.20
19888;DHT22;10106;51.332;12.336;2023-05-03T09:31:22;19.40;44.90
19888;DHT22;10106;51.332;12.336;2023-05-03T09:33:47;20.80;45.10
19888;DHT22;10106;51.332;12.336;2023-05-03T09:36:13;23.20;42.50
19888;DHT22;10106;51.332;12.336;2023-05-03T09:38:39;24.80;40.10
19888;DHT22;10106;51.332;12.336;2023-05-03T09:41:05;26.00;38.90
19888;DHT22;10106;51.332;12.336;2023-05-03T09:43:30;26.30;38.80
19888;DHT22;10106;51.332;12.336;2023-05-03T09:46:10;26.60;37.40
19888;DHT22;10106;51.332;12.336;2023-05-03T09:48:36;26.60;37.00
19888;DHT22;10106;51.332;12.336;2023-05-03T09:51:03;26.50;37.20
19888;DHT22;10106;51.332;12.336;2023-05-03T09:53:33;26.70;38.20
19888;DHT22;10106;51.332;12.336;2023-05-03T09:56:02;26.10;38.10
19888;DHT22;10106;51.332;12.336;2023-05-03T09:58:28;25.50;38.50
19888;DHT22;10106;51.332;12.336;2023-05-03T10:00:56;24.80;39.10
19888;DHT22;10106;51.332;12.336;2023-05-03T10:03:40;25.00;38.80
19888;DHT22;10106;51.332;12.336;2023-05-03T10:11:21;20.20;42.50
19888;DHT22;10106;51.332;12.336;2023-05-03T10:13:48;19.20;44.30
19888;DHT22;10106;51.332;12.336;2023-05-03T10:16:15;18.20;45.20
19888;DHT22;10106;51.332;12.336;2023-05-03T10:18:53;17.40;46.30
19888;DHT22;10106;51.332;12.336;2023-05-03T10:21:23;16.90;47.20
19888;DHT22;10106;51.332;12.336;2023-05-03T10:24:12;16.50;47.90
19888;DHT22;10106;51.332;12.336;2023-05-03T10:26:43;16.50;48.40
19888;DHT22;10106;51.332;12.336;2023-05-03T10:31:53;15.80;50.30
19888;DHT22;10106;51.332;12.336;2023-05-03T10:34:22;15.40;50.70
19888;DHT22;10106;51.332;12.336;2023-05-03T10:36:48;15.10;51.60
19888;DHT22;10106;51.332;12.336;2023-05-03T10:39:19;14.80;51.80
19888;DHT22;10106;51.332;12.336;2023-05-03T10:41:55;14.70;52.90
19888;DHT22;10106;51.332;12.336;2023-05-03T10:44:24;14.70;52.20
19888;DHT22;10106;51.332;12.336;2023-05-03T10:46:52;14.80;52.90
19888;DHT22;10106;51.332;12.336;2023-05-03T10:49:18;14.90;52.90
19888;DHT22;10106;51.332;12.336;2023-05-03T10:51:45;15.00;53.70
19888;DHT22;10106;51.332;12.336;2023-05-03T10:54:11;15.00;53.50
19888;DHT22;10106;51.332;12.336;2023-05-03T10:56:52;15.00;53.80
19888;DHT22;10106;51.332;12.336;2023-05-03T10:59:18;15.30;53.50
19888;DHT22;10106;51.332;12.336;2023-05-03T11:01:44;15.00;53.70
19888;DHT22;10106;51.332;12.336;2023-05-03T11:06:55;15.30;53.20
19888;DHT22;10106;51.332;12.336;2023-05-03T11:09:28;15.20;53.30
19888;DHT22;10106;51.332;12.336;2023-05-03T11:11:54;14.80;53.80
19888;DHT22;10106;51.332;12.336;2023-05-03T11:14:20;14.50;54.60
19888;DHT22;10106;51.332;12.336;2023-05-03T11:16:45;14.30;54.30
19888;DHT22;10106;51.332;12.336;2023-05-03T11:19:14;14.30;54.90
19888;DHT22;10106;51.332;12.336;2023-05-03T11:21:40;14.50;54.70
19888;DHT22;10106;51.332;12.336;2023-05-03T11:24:06;14.50;55.10
19888;DHT22;10106;51.332;12.336;2023-05-03T11:26:36;14.50;55.20
19888;DHT22;10106;51.332;12.336;2023-05-03T11:29:01;14.70;54.80
19888;DHT22;10106;51.332;12.336;2023-05-03T11:31:27;14.60;53.80
19888;DHT22;10106;51.332;12.336;2023-05-03T11:33:53;14.60;54.10
19888;DHT22;10106;51.332;12.336;2023-05-03T11:36:19;14.60;55.60
19888;DHT22;10106;51.332;12.336;2023-05-03T11:38:44;14.60;56.00
19888;DHT22;10106;51.332;12.336;2023-05-03T11:41:11;14.70;55.50
19888;DHT22;10106;51.332;12.336;2023-05-03T11:43:48;15.00;55.40
19888;DHT22;10106;51.332;12.336;2023-05-03T11:46:18;15.00;54.90
19888;DHT22;10106;51.332;12.336;2023-05-03T11:48:43;15.30;54.80
19888;DHT22;10106;51.332;12.336;2023-05-03T11:51:09;15.30;55.10
19888;DHT22;10106;51.332;12.336;2023-05-03T11:53:39;15.30;55.40
19888;DHT22;10106;51.332;12.336;2023-05-03T11:56:11;15.30;55.40
19888;DHT22;10106;51.332;12.336;2023-05-03T11:58:48;15.30;56.10
19888;DHT22;10106;51.332;12.336;2023-05-03T12:01:15;15.40;56.20
19888;DHT22;10106;51.332;12.336;2023-05-03T12:03:41;15.40;55.00
19888;DHT22;10106;51.332;12.336;2023-05-03T12:06:06;15.40;54.90
19888;DHT22;10106;51.332;12.336;2023-05-03T12:08:32;15.20;55.10
19888;DHT22;10106;51.332;12.336;2023-05-03T12:11:01;15.00;55.20
19888;DHT22;10106;51.332;12.336;2023-05-03T12:13:27;14.80;55.40
19888;DHT22;10106;51.332;12.336;2023-05-03T12:15:59;14.70;55.70
19888;DHT22;10106;51.332;12.336;2023-05-03T12:18:51;14.80;56.20
19888;DHT22;10106;51.332;12.336;2023-05-03T12:21:20;14.90;56.60
19888;DHT22;10106;51.332;12.336;2023-05-03T12:23:46;14.80;57.00
19888;DHT22;10106;51.332;12.336;2023-05-03T12:26:22;14.80;57.70
19888;DHT22;10106;51.332;12.336;2023-05-03T12:28:49;14.70;56.60
19888;DHT22;10106;51.332;12.336;2023-05-03T12:31:15;14.90;56.40
19888;DHT22;10106;51.332;12.336;2023-05-03T12:33:41;15.10;56.20
19888;DHT22;10106;51.332;12.336;2023-05-03T12:36:07;15.00;55.80
19888;DHT22;10106;51.332;12.336;2023-05-03T12:38:34;15.00;56.10
19888;DHT22;10106;51.332;12.336;2023-05-03T12:40:59;15.00;56.10
19888;DHT22;10106;51.332;12.336;2023-05-03T12:43:25;14.90;55.80
19888;DHT22;10106;51.332;12.336;2023-05-03T12:45:50;15.00;55.60
19888;DHT22;10106;51.332;12.336;2023-05-03T12:48:16;14.90;55.60
19888;DHT22;10106;51.332;12.336;2023-05-03T12:50:42;15.00;55.80
19888;DHT22;10106;51.332;12.336;2023-05-03T12:53:07;15.30;56.00
19888;DHT22;10106;51.332;12.336;2023-05-03T12:55:33;15.30;56.20
19888;DHT22;10106;51.332;12.336;2023-05-03T12:57:59;15.10;56.60
19888;DHT22;10106;51.332;12.336;2023-05-03T13:00:25;15.00;56.30
19888;DHT22;10106;51.332;12.336;2023-05-03T13:02:51;14.80;55.70
19888;DHT22;10106;51.332;12.336;2023-05-03T13:05:17;14.60;55.70
19888;DHT22;10106;51.332;12.336;2023-05-03T13:07:43;14.50;55.70
19888;DHT22;10106;51.332;12.336;2023-05-03T13:10:09;14.40;55.80
19888;DHT22;10106;51.332;12.336;2023-05-03T13:12:34;14.50;55.90
19888;DHT22;10106;51.332;12.336;2023-05-03T13:15:00;14.60;55.30
19888;DHT22;10106;51.332;12.336;2023-05-03T13:17:29;14.60;55.60
19888;DHT22;10106;51.332;12.336;2023-05-03T13:19:55;14.80;54.70
19888;DHT22;10106;51.332;12.336;2023-05-03T13:22:21;14.90;53.80
19888;DHT22;10106;51.332;12.336;2023-05-03T13:24:47;15.00;53.30
19888;DHT22;10106;51.332;12.336;2023-05-03T13:27:13;15.00;52.50
19888;DHT22;10106;51.332;12.336;2023-05-03T13:29:39;14.90;52.70
19888;DHT22;10106;51.332;12.336;2023-05-03T13:32:05;14.80;52.00
19888;DHT22;10106;51.332;12.336;2023-05-03T13:34:30;14.80;53.20
19888;DHT22;10106;51.332;12.336;2023-05-03T13:36:59;14.80;54.10
19888;DHT22;10106;51.332;12.336;2023-05-03T13:39:25;14.70;52.50
19888;DHT22;10106;51.332;12.336;2023-05-03T13:41:50;14.90;53.20
19888;DHT22;10106;51.332;12.336;2023-05-03T13:44:16;15.00;52.70
19888;DHT22;10106;51.332;12.336;2023-05-03T13:46:42;15.10;52.80
19888;DHT22;10106;51.332;12.336;2023-05-03T13:49:08;14.90;53.10
19888;DHT22;10106;51.332;12.336;2023-05-03T13:51:34;14.70;53.30
19888;DHT22;10106;51.332;12.336;2023-05-03T13:54:00;14.80;54.90
19888;DHT22;10106;51.332;12.336;2023-05-03T13:56:26;14.70;53.50
19888;DHT22;10106;51.332;12.336;2023-05-03T13:58:51;14.70;53.50
19888;DHT22;10106;51.332;12.336;2023-05-03T14:01:17;14.80;55.00
19888;DHT22;10106;51.332;12.336;2023-05-03T14:03:43;14.90;55.70
19888;DHT22;10106;51.332;12.336;2023-05-03T14:06:09;14.90;55.80
19888;DHT22;10106;51.332;12.336;2023-05-03T14:08:35;15.00;55.30
19888;DHT22;10106;51.332;12.336;2023-05-03T14:11:00;15.20;54.90
19888;DHT22;10106;51.332;12.336;2023-05-03T14:13:27;15.20;55.80
19888;DHT22;10106;51.332;12.336;2023-05-03T14:15:52;15.00;56.10
19888;DHT22;10106;51.332;12.336;2023-05-03T14:18:19;14.90;55.80
19888;DHT22;10106;51.332;12.336;2023-05-03T14:20:45;14.90;56.90
19888;DHT22;10106;51.332;12.336;2023-05-03T14:23:11;15.00;56.40
19888;DHT22;10106;51.332;12.336;2023-05-03T14:25:36;15.00;55.90
19888;DHT22;10106;51.332;12.336;2023-05-03T14:28:02;14.90;55.10
19888;DHT22;10106;51.332;12.336;2023-05-03T14:30:29;14.90;56.10
19888;DHT22;10106;51.332;12.336;2023-05-03T14:32:55;15.00;56.40
19888;DHT22;10106;51.332;12.336;2023-05-03T14:35:21;15.00;57.10
19888;DHT22;10106;51.332;12.336;2023-05-03T14:37:47;15.00;57.10
19888;DHT22;10106;51.332;12.336;2023-05-03T14:40:13;15.00;57.60
19888;DHT22;10106;51.332;12.336;2023-05-03T14:42:40;15.00;57.70
19888;DHT22;10106;51.332;12.336;2023-05-03T14:45:06;15.00;57.90
19888;DHT22;10106;51.332;12.336;2023-05-03T14:47:32;14.90;58.00
19888;DHT22;10106;51.332;12.336;2023-05-03T14:49:58;14.80;57.80
19888;DHT22;10106;51.332;12.336;2023-05-03T14:52:24;14.80;57.90
19888;DHT22;10106;51.332;12.336;2023-05-03T14:54:50;14.80;58.30
19888;DHT22;10106;51.332;12.336;2023-05-03T14:57:15;14.80;58.80
19888;DHT22;10106;51.332;12.336;2023-05-03T14:59:41;14.70;57.70
19888;DHT22;10106;51.332;12.336;2023-05-03T15:02:06;14.60;57.60
19888;DHT22;10106;51.332;12.336;2023-05-03T15:04:33;14.50;57.10
19888;DHT22;10106;51.332;12.336;2023-05-03T15:06:58;14.50;57.00
19888;DHT22;10106;51.332;12.336;2023-05-03T15:09:25;14.50;56.60
19888;DHT22;10106;51.332;12.336;2023-05-03T15:11:51;14.50;56.90
19888;DHT22;10106;51.332;12.336;2023-05-03T15:14:16;14.50;57.00
19888;DHT22;10106;51.332;12.336;2023-05-03T15:16:42;14.50;56.90
19888;DHT22;10106;51.332;12.336;2023-05-03T15:19:08;14.40;56.30
19888;DHT22;10106;51.332;12.336;2023-05-03T15:21:44;14.30;56.50
19888;DHT22;10106;51.332;12.336;2023-05-03T15:24:10;14.30;56.90
19888;DHT22;10106;51.332;12.336;2023-05-03T15:26:35;14.20;57.40
19888;DHT22;10106;51.332;12.336;2023-05-03T15:29:01;14.10;57.20
19888;DHT22;10106;51.332;12.336;2023-05-03T15:31:27;14.10;57.80
19888;DHT22;10106;51.332;12.336;2023-05-03T15:33:52;14.10;57.80
19888;DHT22;10106;51.332;12.336;2023-05-03T15:36:18;14.10;57.90
19888;DHT22;10106;51.332;12.336;2023-05-03T15:38:43;14.10;58.00
19888;DHT22;10106;51.332;12.336;2023-05-03T15:41:09;14.10;58.60
19888;DHT22;10106;51.332;12.336;2023-05-03T15:43:35;14.10;58.10
19888;DHT22;10106;51.332;12.336;2023-05-03T15:46:01;13.90;57.40